createdAt,value
2017-08-30T00:02:23.938Z,30.12
2017-08-30T00:04:49.991Z,27.87
2017-08-30T00:07:16.062Z,27.02
2017-08-30T00:09:42.108Z,28.10
2017-08-30T00:12:08.116Z,28.25
2017-08-30T00:14:34.178Z,29.70
2017-08-30T00:17:00.188Z,31.00
2017-08-30T00:19:26.235Z,31.20
2017-08-30T00:21:52.472Z,31.52
2017-08-30T00:27:21.453Z,27.55
2017-08-30T00:29:47.459Z,27.58
2017-08-30T00:32:13.518Z,27.55
2017-08-30T00:34:39.744Z,25.90
2017-08-30T00:37:05.767Z,27.87
2017-08-30T00:39:31.829Z,25.70
2017-08-30T00:41:57.951Z,26.20
2017-08-30T00:44:24.017Z,26.37
2017-08-30T00:46:50.047Z,26.20
2017-08-30T00:49:16.389Z,25.63
2017-08-30T00:51:42.403Z,23.70
2017-08-30T00:54:08.425Z,26.15
2017-08-30T00:56:34.447Z,27.55
2017-08-30T00:59:00.545Z,25.27
2017-08-30T01:01:26.556Z,24.73
2017-08-30T01:03:52.633Z,27.30
2017-08-30T01:06:18.708Z,28.48
2017-08-30T01:08:44.743Z,29.42
2017-08-30T01:11:10.799Z,28.30
2017-08-30T01:13:36.859Z,29.80
2017-08-30T01:16:02.900Z,27.83
2017-08-30T01:18:28.953Z,29.40
2017-08-30T01:20:54.993Z,30.30
2017-08-30T01:23:21.024Z,29.10
2017-08-30T01:25:47.354Z,30.10
2017-08-30T01:28:13.360Z,29.65
2017-08-30T01:30:39.368Z,30.02
2017-08-30T01:33:05.401Z,30.10
2017-08-30T01:35:31.420Z,28.92
2017-08-30T01:37:57.428Z,30.00
2017-08-30T01:40:23.457Z,29.08
2017-08-30T01:42:49.482Z,29.63
2017-08-30T01:45:15.539Z,28.10
2017-08-30T01:47:41.581Z,27.83
2017-08-30T01:50:07.612Z,28.00
2017-08-30T01:52:33.693Z,30.20
2017-08-30T01:54:59.732Z,29.55
2017-08-30T01:57:25.744Z,29.00
2017-08-30T01:59:51.933Z,29.17
2017-08-30T02:02:17.928Z,29.95
2017-08-30T02:04:43.987Z,28.70
2017-08-30T02:07:10.013Z,28.33
2017-08-30T02:09:36.040Z,31.35
2017-08-30T02:12:02.080Z,31.95
2017-08-30T02:14:28.133Z,34.05
2017-08-30T02:16:54.134Z,32.58
2017-08-30T02:19:20.177Z,32.60
2017-08-30T02:21:46.223Z,32.45
2017-08-30T02:24:12.270Z,33.17
2017-08-30T02:26:38.338Z,29.58
2017-08-30T02:29:04.356Z,31.12
2017-08-30T02:31:30.385Z,32.35
2017-08-30T02:33:56.760Z,29.00
2017-08-30T02:36:22.780Z,30.62
2017-08-30T02:38:48.801Z,32.55
2017-08-30T02:41:14.843Z,30.98
2017-08-30T02:43:40.868Z,30.65
2017-08-30T02:46:06.893Z,31.23
2017-08-30T02:48:33.085Z,30.08
2017-08-30T02:50:59.135Z,31.90
2017-08-30T02:53:25.177Z,32.00
2017-08-30T02:55:51.216Z,29.00
2017-08-30T02:58:17.274Z,30.95
2017-08-30T03:00:43.301Z,29.92
2017-08-30T03:03:09.329Z,31.30
2017-08-30T03:05:35.392Z,30.50
2017-08-30T03:08:01.396Z,29.67
2017-08-30T03:10:27.477Z,30.42
2017-08-30T03:12:53.497Z,30.02
2017-08-30T03:15:19.784Z,31.17
2017-08-30T03:17:45.823Z,31.98
2017-08-30T03:20:11.837Z,31.25
2017-08-30T03:22:37.849Z,30.55
2017-08-30T03:25:03.898Z,30.95
2017-08-30T03:27:29.988Z,30.37
2017-08-30T03:29:56.011Z,31.90
2017-08-30T03:32:22.373Z,30.50
2017-08-30T03:34:48.409Z,31.48
2017-08-30T03:37:14.428Z,30.75
2017-08-30T03:39:40.448Z,30.00
2017-08-30T03:42:06.470Z,29.80
2017-08-30T03:44:32.494Z,30.03
2017-08-30T03:46:58.537Z,29.23
2017-08-30T03:49:24.537Z,30.40
2017-08-30T03:51:50.605Z,31.23
2017-08-30T03:54:16.648Z,32.43
2017-08-30T03:56:42.673Z,32.20
2017-08-30T03:59:08.673Z,32.40
2017-08-30T04:01:34.721Z,32.30
2017-08-30T04:04:00.720Z,31.33
2017-08-30T04:06:26.764Z,34.25
2017-08-30T04:08:53.096Z,32.95
2017-08-30T04:11:19.117Z,33.53
2017-08-30T04:13:45.128Z,35.88
2017-08-30T04:16:11.156Z,33.60
2017-08-30T04:18:37.193Z,37.97
2017-08-30T04:21:03.226Z,37.45
2017-08-30T04:23:29.322Z,40.50
2017-08-30T04:25:55.345Z,41.50
2017-08-30T04:28:21.368Z,41.60
2017-08-30T04:30:47.701Z,41.70
2017-08-30T04:33:13.727Z,43.20
2017-08-30T04:35:39.761Z,42.70
2017-08-30T04:38:05.804Z,44.00
2017-08-30T04:40:31.821Z,45.55
2017-08-30T04:42:57.825Z,43.55
2017-08-30T04:45:24.159Z,44.22
2017-08-30T04:47:50.185Z,42.83
2017-08-30T04:50:16.265Z,45.97
2017-08-30T04:52:42.521Z,46.85
2017-08-30T04:55:08.547Z,47.20
2017-08-30T04:57:34.569Z,48.17
2017-08-30T05:00:00.593Z,47.60
2017-08-30T05:02:26.623Z,48.30
2017-08-30T05:04:52.938Z,49.17
2017-08-30T05:07:18.969Z,49.92
2017-08-30T05:09:45.008Z,48.22
2017-08-30T05:12:11.037Z,48.95
2017-08-30T05:14:37.045Z,46.80
2017-08-30T05:17:03.098Z,48.30
2017-08-30T05:19:29.177Z,47.72
2017-08-30T05:21:55.319Z,49.45
2017-08-30T05:24:21.343Z,49.45
2017-08-30T05:26:47.385Z,46.70
2017-08-30T05:29:13.423Z,47.70
2017-08-30T05:31:39.472Z,47.65
2017-08-30T05:34:05.524Z,49.40
2017-08-30T05:36:31.596Z,49.00
2017-08-30T05:38:57.704Z,47.83
2017-08-30T05:41:23.800Z,50.90
2017-08-30T05:43:49.814Z,51.45
2017-08-30T05:46:15.837Z,50.27
2017-08-30T05:48:41.913Z,48.30
2017-08-30T05:51:07.934Z,50.17
2017-08-30T05:53:33.953Z,49.38
2017-08-30T05:56:00.017Z,49.50
2017-08-30T05:58:26.053Z,49.95
2017-08-30T06:00:52.117Z,47.15
2017-08-30T06:03:18.156Z,48.87
2017-08-30T06:05:44.175Z,44.20
2017-08-30T06:08:10.240Z,46.22
2017-08-30T06:10:36.257Z,42.80
2017-08-30T06:13:02.661Z,43.67
2017-08-30T06:15:28.697Z,39.65
2017-08-30T06:17:54.757Z,37.90
2017-08-30T06:20:20.979Z,36.30
2017-08-30T06:22:47.013Z,36.55
2017-08-30T06:25:13.100Z,35.22
2017-08-30T06:27:39.148Z,35.30
2017-08-30T06:30:05.180Z,35.10
2017-08-30T06:32:31.193Z,34.08
2017-08-30T06:34:57.269Z,31.40
2017-08-30T06:37:23.292Z,33.22
2017-08-30T06:39:49.323Z,30.30
2017-08-30T06:42:15.380Z,29.10
2017-08-30T06:44:41.448Z,28.90
2017-08-30T06:47:07.460Z,27.87
2017-08-30T06:49:33.481Z,27.80
2017-08-30T06:51:59.498Z,25.27
2017-08-30T06:54:25.495Z,26.73
2017-08-30T06:56:51.775Z,25.20
2017-08-30T06:59:17.805Z,25.20
2017-08-30T07:01:43.871Z,26.37
2017-08-30T07:04:10.118Z,24.17
2017-08-30T07:06:36.181Z,23.90
2017-08-30T07:09:02.269Z,24.20
2017-08-30T07:11:28.301Z,23.50
2017-08-30T07:13:54.329Z,23.20
2017-08-30T07:16:20.334Z,21.50
2017-08-30T07:18:46.346Z,22.83
2017-08-30T07:21:12.407Z,22.67
2017-08-30T07:23:38.433Z,22.80
2017-08-30T07:26:04.463Z,22.77
2017-08-30T07:28:30.478Z,23.48
2017-08-30T07:30:56.523Z,23.20
2017-08-30T07:33:36.060Z,22.52
2017-08-30T07:36:02.110Z,22.70
2017-08-30T07:38:28.139Z,22.33
2017-08-30T07:40:54.164Z,21.90
2017-08-30T07:43:20.245Z,22.90
2017-08-30T07:45:46.276Z,21.80
2017-08-30T07:48:12.328Z,21.40
2017-08-30T07:50:38.372Z,21.43
2017-08-30T07:53:04.409Z,21.60
2017-08-30T07:55:30.779Z,21.13
2017-08-30T07:58:17.308Z,20.65
2017-08-30T08:00:43.349Z,20.17
2017-08-30T08:03:09.369Z,19.90
2017-08-30T08:05:35.401Z,20.70
2017-08-30T08:08:01.420Z,20.93
2017-08-30T08:10:27.434Z,19.98
2017-08-30T08:12:53.621Z,19.08
2017-08-30T08:15:19.637Z,17.17
2017-08-30T08:17:45.654Z,16.93
2017-08-30T08:20:11.696Z,17.80
2017-08-30T08:22:37.713Z,18.50
2017-08-30T08:25:04.041Z,19.00
2017-08-30T08:27:30.048Z,17.40
2017-08-30T08:29:56.065Z,91.53
2017-08-30T08:32:22.114Z,134.57
2017-08-30T08:34:48.120Z,219.13
2017-08-30T08:37:14.143Z,41.45
2017-08-30T08:39:40.468Z,18.80
2017-08-30T08:42:06.521Z,19.35
2017-08-30T08:44:32.540Z,18.40
2017-08-30T08:46:58.565Z,15.93
2017-08-30T08:49:24.607Z,15.40
2017-08-30T08:51:50.633Z,15.13
2017-08-30T08:54:16.703Z,15.57
2017-08-30T08:56:42.727Z,16.17
2017-08-30T08:59:08.772Z,15.60
2017-08-30T09:01:34.797Z,15.27
2017-08-30T09:04:00.817Z,16.23
2017-08-30T09:06:26.838Z,16.30
2017-08-30T09:08:52.889Z,14.85
2017-08-30T09:11:18.906Z,14.50
2017-08-30T09:13:44.937Z,14.90
2017-08-30T09:16:10.968Z,14.57
2017-08-30T09:18:37.022Z,13.15
2017-08-30T09:21:03.024Z,14.70
2017-08-30T09:23:29.069Z,14.20
2017-08-30T09:25:55.060Z,14.95
2017-08-30T09:28:21.062Z,14.50
2017-08-30T09:30:47.116Z,14.80
2017-08-30T09:33:13.141Z,15.20
2017-08-30T09:35:39.178Z,14.30
2017-08-30T09:38:05.205Z,14.85
2017-08-30T09:40:31.417Z,13.40
2017-08-30T09:42:57.425Z,13.48
2017-08-30T09:45:23.465Z,13.10
2017-08-30T09:47:49.777Z,13.80
2017-08-30T09:50:15.813Z,13.02
2017-08-30T09:52:41.819Z,13.30
2017-08-30T09:55:07.836Z,12.60
2017-08-30T09:57:33.853Z,12.43
2017-08-30T09:59:59.877Z,13.48
2017-08-30T10:02:25.905Z,12.40
2017-08-30T10:04:51.928Z,12.50
2017-08-30T10:07:17.965Z,12.25
2017-08-30T10:09:43.992Z,11.25
2017-08-30T10:12:10.012Z,11.93
2017-08-30T10:14:36.034Z,11.00
2017-08-30T10:17:02.054Z,10.95
2017-08-30T10:19:28.056Z,10.20
2017-08-30T10:21:54.069Z,10.20
2017-08-30T10:24:20.105Z,9.95
2017-08-30T10:26:46.388Z,10.50
2017-08-30T10:29:12.421Z,9.65
2017-08-30T10:31:38.430Z,9.65
2017-08-30T10:34:04.471Z,10.50
2017-08-30T10:36:30.843Z,10.30
2017-08-30T10:38:56.873Z,10.27
2017-08-30T10:41:22.906Z,10.15
2017-08-30T10:43:48.948Z,10.30
2017-08-30T10:46:14.959Z,11.33
2017-08-30T10:48:40.976Z,10.90
2017-08-30T10:51:06.991Z,12.60
2017-08-30T10:53:33.049Z,12.88
2017-08-30T10:55:59.053Z,12.30
2017-08-30T10:58:25.065Z,12.00
2017-08-30T11:00:51.077Z,12.75
2017-08-30T11:03:17.094Z,13.60
2017-08-30T11:05:43.126Z,13.52
2017-08-30T11:08:09.129Z,12.65
2017-08-30T11:10:35.149Z,11.70
2017-08-30T11:13:01.188Z,12.93
2017-08-30T11:15:27.205Z,12.27
2017-08-30T11:17:53.210Z,13.50
2017-08-30T11:20:21.133Z,12.55
2017-08-30T11:22:47.157Z,11.88
2017-08-30T11:25:13.205Z,11.15
2017-08-30T11:27:39.512Z,12.50
2017-08-30T11:30:05.533Z,12.63
2017-08-30T11:32:31.532Z,12.80
2017-08-30T11:34:57.557Z,12.82
2017-08-30T11:37:23.586Z,13.70
2017-08-30T11:39:49.610Z,13.73
2017-08-30T11:42:15.658Z,13.10
2017-08-30T11:44:41.707Z,13.95
2017-08-30T11:47:07.740Z,15.63
2017-08-30T11:49:33.774Z,14.80
2017-08-30T11:52:00.068Z,16.23
2017-08-30T11:54:26.119Z,15.60
2017-08-30T11:56:52.206Z,14.65
2017-08-30T11:59:18.223Z,15.20
2017-08-30T12:01:44.274Z,14.48
2017-08-30T12:04:10.338Z,15.77
2017-08-30T12:06:36.388Z,14.82
2017-08-30T12:09:02.466Z,14.05
2017-08-30T12:11:28.493Z,13.40
2017-08-30T12:13:54.552Z,13.02
2017-08-30T12:16:20.602Z,13.95
2017-08-30T12:18:46.637Z,14.00
2017-08-30T12:21:12.710Z,14.60
2017-08-30T12:23:38.758Z,15.27
2017-08-30T12:26:04.770Z,15.30
2017-08-30T12:28:30.795Z,14.55
2017-08-30T12:30:57.082Z,15.53
2017-08-30T12:33:23.130Z,15.80
2017-08-30T12:35:49.457Z,13.20
2017-08-30T12:38:21.805Z,13.82
2017-08-30T12:40:47.869Z,14.30
2017-08-30T12:43:13.934Z,14.68
2017-08-30T12:45:39.998Z,14.60
2017-08-30T12:48:06.029Z,12.55
2017-08-30T12:50:32.056Z,14.25
2017-08-30T12:52:58.078Z,14.70
2017-08-30T12:55:24.120Z,15.45
2017-08-30T12:57:50.300Z,14.67
2017-08-30T13:00:16.331Z,13.98
2017-08-30T13:02:42.389Z,13.62
2017-08-30T13:05:08.426Z,13.90
2017-08-30T13:07:34.482Z,14.75
2017-08-30T13:10:00.516Z,15.27
2017-08-30T13:12:26.593Z,14.70
2017-08-30T13:14:52.631Z,14.77
2017-08-30T13:17:18.670Z,14.07
2017-08-30T13:19:44.737Z,15.25
2017-08-30T13:22:10.747Z,15.05
2017-08-30T13:24:36.777Z,15.85
2017-08-30T13:27:02.805Z,18.70
2017-08-30T13:29:28.897Z,16.58
2017-08-30T13:31:54.909Z,16.40
2017-08-30T13:34:21.004Z,18.67
2017-08-30T13:36:47.037Z,18.05
2017-08-30T13:39:13.057Z,16.13
2017-08-30T13:41:39.094Z,17.05
2017-08-30T13:44:05.096Z,16.67
2017-08-30T13:46:31.119Z,15.98
2017-08-30T13:48:57.397Z,16.67
2017-08-30T13:51:23.441Z,16.70
2017-08-30T13:53:49.450Z,17.25
2017-08-30T13:56:15.634Z,16.30
2017-08-30T13:58:41.654Z,15.70
2017-08-30T14:01:07.676Z,15.87
2017-08-30T14:03:33.903Z,15.15
2017-08-30T14:05:59.928Z,14.70
2017-08-30T14:08:25.925Z,14.63
2017-08-30T14:10:52.132Z,17.58
2017-08-30T14:13:18.169Z,16.27
2017-08-30T14:15:44.173Z,16.23
2017-08-30T14:18:10.199Z,17.17
2017-08-30T14:20:36.269Z,17.40
2017-08-30T14:23:02.312Z,17.12
2017-08-30T14:25:28.384Z,17.50
2017-08-30T14:27:54.517Z,16.05
2017-08-30T14:30:21.764Z,16.13
2017-08-30T14:32:47.807Z,15.98
2017-08-30T14:35:13.829Z,15.07
2017-08-30T14:37:39.845Z,15.73
2017-08-30T14:40:06.163Z,15.75
2017-08-30T14:42:32.194Z,16.50
2017-08-30T14:44:58.213Z,16.65
2017-08-30T14:47:24.702Z,16.77
2017-08-30T14:49:50.818Z,16.47
2017-08-30T14:52:16.841Z,16.10
2017-08-30T14:54:43.101Z,17.05
2017-08-30T14:57:09.133Z,17.05
2017-08-30T14:59:35.317Z,16.15
2017-08-30T15:02:01.364Z,17.10
2017-08-30T15:04:27.379Z,17.00
2017-08-30T15:06:53.418Z,16.80
2017-08-30T15:09:19.638Z,16.90
2017-08-30T15:11:45.642Z,17.95
2017-08-30T15:14:11.680Z,18.05
2017-08-30T15:16:37.716Z,17.60
2017-08-30T15:19:03.732Z,18.12
2017-08-30T15:21:29.777Z,18.60
2017-08-30T15:23:55.810Z,18.00
2017-08-30T15:26:21.858Z,17.80
2017-08-30T15:28:47.899Z,18.05
2017-08-30T15:31:14.141Z,17.90
2017-08-30T15:33:40.170Z,19.95
2017-08-30T15:36:06.221Z,19.23
2017-08-30T15:38:32.401Z,30.58
2017-08-30T15:40:59.186Z,22.13
2017-08-30T15:43:25.238Z,19.58
2017-08-30T15:45:51.273Z,19.77
2017-08-30T15:48:17.310Z,17.90
2017-08-30T15:50:43.330Z,19.42
2017-08-30T15:53:09.383Z,20.83
2017-08-30T15:55:35.600Z,20.05
2017-08-30T15:58:01.609Z,20.55
2017-08-30T16:00:27.841Z,19.75
2017-08-30T16:02:53.841Z,21.40
2017-08-30T16:05:20.012Z,21.07
2017-08-30T16:07:46.292Z,21.10
2017-08-30T16:10:12.294Z,22.40
2017-08-30T16:12:38.338Z,22.30
2017-08-30T16:15:04.373Z,21.37
2017-08-30T16:17:30.895Z,20.20
2017-08-30T16:19:56.929Z,23.45
2017-08-30T16:22:22.957Z,21.08
2017-08-30T16:24:49.007Z,19.60
2017-08-30T16:27:15.020Z,19.12
2017-08-30T16:29:41.042Z,19.40
2017-08-30T16:32:07.239Z,19.67
2017-08-30T16:34:33.269Z,19.37
2017-08-30T16:36:59.425Z,19.80
2017-08-30T16:39:25.612Z,21.08
2017-08-30T16:41:51.931Z,20.45
2017-08-30T16:44:18.116Z,19.77
2017-08-30T16:46:44.196Z,20.33
2017-08-30T16:49:10.358Z,19.10
2017-08-30T16:51:36.498Z,18.90
2017-08-30T16:54:02.969Z,19.52
2017-08-30T16:56:29.148Z,20.00
2017-08-30T16:58:55.335Z,21.15
2017-08-30T17:01:21.973Z,19.00
2017-08-30T17:03:48.124Z,20.37
2017-08-30T17:06:14.417Z,19.17
2017-08-30T17:08:40.800Z,20.55
2017-08-30T17:11:06.980Z,19.83
2017-08-30T17:13:33.182Z,21.70
2017-08-30T17:15:59.399Z,20.70
2017-08-30T17:18:25.600Z,21.83
2017-08-30T17:20:51.766Z,26.50
2017-08-30T17:23:18.218Z,26.65
2017-08-30T17:25:44.466Z,24.35
2017-08-30T17:28:10.662Z,22.45
2017-08-30T17:30:36.766Z,21.25
2017-08-30T17:33:02.942Z,21.67
2017-08-30T17:35:29.316Z,21.55
2017-08-30T17:37:55.443Z,21.80
2017-08-30T17:40:21.647Z,23.63
2017-08-30T17:42:47.717Z,22.77
2017-08-30T17:45:13.966Z,26.50
2017-08-30T17:47:40.151Z,61.30
2017-08-30T17:50:06.335Z,86.18
2017-08-30T17:52:32.393Z,67.25
2017-08-30T17:54:58.500Z,54.58
2017-08-30T17:57:24.524Z,75.37
2017-08-30T17:59:50.586Z,68.27
2017-08-30T18:02:16.613Z,60.33
2017-08-30T18:04:42.646Z,70.53
2017-08-30T18:07:09.025Z,46.70
2017-08-30T18:09:35.051Z,99.03
2017-08-30T18:12:01.072Z,76.57
2017-08-30T18:14:27.459Z,54.60
2017-08-30T18:16:53.490Z,57.60
2017-08-30T18:19:19.552Z,38.67
2017-08-30T18:21:45.737Z,34.95
2017-08-30T18:24:11.740Z,27.10
2017-08-30T18:26:37.787Z,52.22
2017-08-30T18:29:04.801Z,58.47
2017-08-30T18:31:30.835Z,34.53
2017-08-30T18:33:57.005Z,57.70
2017-08-30T18:36:23.035Z,38.35
2017-08-30T18:38:49.052Z,30.30
2017-08-30T18:41:15.094Z,51.20
2017-08-30T18:43:41.412Z,47.90
2017-08-30T18:46:07.883Z,50.83
2017-08-30T18:48:34.931Z,24.55
2017-08-30T18:51:01.018Z,37.92
2017-08-30T18:53:28.219Z,38.70
2017-08-30T18:55:54.271Z,45.92
2017-08-30T18:58:24.170Z,27.55
2017-08-30T19:00:50.198Z,32.10
2017-08-30T19:03:16.501Z,24.35
2017-08-30T19:05:46.503Z,24.90
2017-08-30T19:08:13.095Z,27.40
2017-08-30T19:10:40.391Z,30.65
2017-08-30T19:13:07.877Z,30.87
2017-08-30T19:15:35.089Z,34.60
2017-08-30T19:18:01.773Z,30.25
2017-08-30T19:20:33.500Z,30.60
2017-08-30T19:23:01.657Z,32.20
2017-08-30T19:25:28.650Z,44.97
2017-08-30T19:27:55.634Z,45.42
2017-08-30T19:30:25.043Z,25.48
2017-08-30T19:32:51.392Z,34.35
2017-08-30T19:35:19.745Z,35.13
2017-08-30T19:37:50.405Z,29.73
2017-08-30T19:40:16.451Z,31.20
2017-08-30T19:42:42.676Z,24.05
2017-08-30T19:45:11.415Z,23.58
2017-08-30T19:47:37.516Z,38.97
2017-08-30T19:50:04.205Z,24.95
2017-08-30T19:52:32.272Z,51.03
2017-08-30T19:55:01.338Z,73.85
2017-08-30T19:57:28.493Z,110.90
2017-08-30T19:59:56.425Z,62.13
2017-08-30T20:02:23.182Z,40.95
2017-08-30T20:04:49.389Z,55.35
2017-08-30T20:07:15.574Z,71.70
2017-08-30T20:09:42.642Z,44.13
2017-08-30T20:12:09.048Z,59.70
2017-08-30T20:14:35.076Z,27.13
2017-08-30T20:17:01.138Z,26.98
2017-08-30T20:19:27.937Z,27.98
2017-08-30T20:21:54.153Z,36.70
2017-08-30T20:24:20.193Z,52.35
2017-08-30T20:26:46.248Z,39.47
2017-08-30T20:29:12.274Z,39.00
2017-08-30T20:31:38.285Z,36.03
2017-08-30T20:34:05.337Z,34.80
2017-08-30T20:36:32.241Z,36.13
2017-08-30T20:38:58.288Z,25.43
2017-08-30T20:41:24.321Z,24.58
2017-08-30T20:43:50.318Z,24.95
2017-08-30T20:46:16.421Z,26.00
2017-08-30T20:48:42.471Z,25.30
2017-08-30T20:51:08.493Z,27.00
2017-08-30T20:53:34.521Z,27.35
2017-08-30T20:56:00.567Z,126.45
2017-08-30T20:58:26.612Z,67.12
2017-08-30T21:00:53.640Z,205.65
2017-08-30T21:03:19.661Z,36.00
2017-08-30T21:05:45.776Z,32.33
2017-08-30T21:08:11.805Z,34.35
2017-08-30T21:10:37.834Z,36.55
2017-08-30T21:13:03.885Z,35.73
2017-08-30T21:15:29.908Z,38.15
2017-08-30T21:17:55.918Z,40.20
2017-08-30T21:20:21.964Z,40.47
2017-08-30T21:22:47.989Z,41.72
2017-08-30T21:25:14.021Z,42.20
2017-08-30T21:27:40.059Z,43.85
2017-08-30T21:30:06.074Z,42.40
2017-08-30T21:32:32.091Z,45.90
2017-08-30T21:34:58.281Z,45.72
2017-08-30T21:37:24.289Z,46.50
2017-08-30T21:39:50.337Z,47.85
2017-08-30T21:42:16.380Z,46.47
2017-08-30T21:44:42.390Z,47.28
2017-08-30T21:47:08.393Z,47.73
2017-08-30T21:49:34.446Z,48.55
2017-08-30T21:52:00.436Z,47.93
2017-08-30T21:54:26.440Z,51.95
2017-08-30T21:56:52.489Z,52.62
2017-08-30T21:59:18.501Z,49.88
2017-08-30T22:01:44.512Z,47.47
2017-08-30T22:04:10.527Z,48.10
2017-08-30T22:06:36.563Z,50.22
2017-08-30T22:09:02.617Z,49.78
2017-08-30T22:11:28.624Z,51.30
2017-08-30T22:13:54.645Z,51.88
2017-08-30T22:16:20.694Z,53.17
2017-08-30T22:18:46.738Z,51.15
2017-08-30T22:21:12.753Z,52.47
2017-08-30T22:23:39.085Z,53.20
2017-08-30T22:26:05.124Z,54.33
2017-08-30T22:28:31.136Z,53.63
2017-08-30T22:30:57.252Z,53.70
2017-08-30T22:33:23.268Z,51.97
2017-08-30T22:35:49.266Z,51.87
2017-08-30T22:38:15.552Z,54.20
2017-08-30T22:40:41.572Z,50.17
2017-08-30T22:43:07.621Z,51.85
2017-08-30T22:45:33.653Z,55.37
2017-08-30T22:47:59.673Z,54.13
2017-08-30T22:50:25.703Z,55.60
2017-08-30T22:52:51.735Z,56.13
2017-08-30T22:55:17.789Z,53.47
2017-08-30T22:57:44.529Z,54.83
2017-08-30T23:00:10.545Z,54.25
2017-08-30T23:02:36.577Z,55.92
2017-08-30T23:05:02.666Z,55.55
2017-08-30T23:07:28.712Z,55.90
2017-08-30T23:09:54.743Z,56.33
2017-08-30T23:12:20.773Z,54.00
2017-08-30T23:14:46.816Z,54.13
2017-08-30T23:17:12.835Z,55.45
2017-08-30T23:19:39.616Z,45.80
2017-08-30T23:22:05.636Z,49.10
2017-08-30T23:24:31.682Z,42.62
2017-08-30T23:26:57.743Z,38.67
2017-08-30T23:29:23.766Z,36.30
2017-08-30T23:31:49.778Z,37.10
2017-08-30T23:34:15.847Z,32.08
2017-08-30T23:36:41.889Z,29.50
2017-08-30T23:39:07.916Z,29.15
2017-08-30T23:41:33.984Z,27.85
2017-08-30T23:44:00.030Z,25.60
2017-08-30T23:46:26.064Z,25.17
2017-08-30T23:48:52.115Z,26.75
2017-08-30T23:51:18.150Z,24.37
2017-08-30T23:53:44.202Z,24.10
2017-08-30T23:56:10.245Z,24.12
2017-08-30T23:58:36.269Z,22.98
